Time;durP1;ratioP1;P1;durP2;ratioP2;P2;SDS_P1;SDS_P2;PMS_P1;PMS_P2;Temp;Humidity;BMP_temperature;BMP_pressure;BME280_temperature;BME280_humidity;BME280_pressure;Samples;Min_cycle;Max_cycle;Signal;HPM_P1;HPM_P2
2022/06/02 00:04:32;;;;;;;3.53;1.92;;;14.90;86.30;;;;;;10538356;28;20040;-58
2022/06/02 00:10:26;;;;;;;1.90;1.67;;;14.90;86.30;;;;;;10543327;28;20028;-58
2022/06/02 00:15:35;;;;;;;1.77;1.67;;;14.90;86.10;;;;;;10496715;28;20040;-59
2022/06/02 00:20:50;;;;;;;2.38;2.00;;;14.80;86.20;;;;;;10535756;28;20081;-61
2022/06/02 00:26:24;;;;;;;2.72;1.98;;;14.80;86.10;;;;;;10542472;28;20070;-62
2022/06/02 00:31:36;;;;;;;2.83;1.77;;;14.80;86.00;;;;;;10542705;28;20036;-58
2022/06/02 00:37:04;;;;;;;2.17;1.90;;;14.80;86.00;;;;;;10542346;28;20064;-59
2022/06/02 00:42:16;;;;;;;2.38;1.95;;;14.70;85.90;;;;;;10539779;28;20067;-58
2022/06/02 00:47:37;;;;;;;2.58;1.70;;;14.70;85.80;;;;;;10541885;28;20048;-61
2022/06/02 00:52:44;;;;;;;2.17;1.67;;;14.70;85.80;;;;;;10541679;28;20067;-58
2022/06/02 00:57:58;;;;;;;1.98;1.77;;;14.60;85.80;;;;;;10541602;28;20431;-58
2022/06/02 01:03:11;;;;;;;2.10;1.70;;;14.60;85.70;;;;;;10541212;28;20102;-61
2022/06/02 01:08:16;;;;;;;2.50;1.98;;;14.60;85.70;;;;;;10540878;28;20139;-60
2022/06/02 01:13:40;;;;;;;4.72;1.92;;;14.60;85.60;;;;;;10540873;28;20025;-61
2022/06/02 01:18:55;;;;;;;1.95;1.70;;;14.50;85.50;;;;;;10540736;28;20040;-61
2022/06/02 01:24:02;;;;;;;1.73;1.42;;;14.50;85.50;;;;;;10540838;28;20027;-59
2022/06/02 01:29:03;;;;;;;2.15;1.70;;;14.50;85.50;;;;;;10540129;28;20032;-61
2022/06/02 01:34:09;;;;;;;2.03;1.60;;;14.80;85.60;;;;;;10540043;28;20032;-60
2022/06/02 01:39:44;;;;;;;2.40;1.75;;;14.40;85.30;;;;;;10539737;28;20028;-59
2022/06/02 01:45:00;;;;;;;1.65;1.40;;;14.40;85.20;;;;;;10539282;28;20484;-58
2022/06/02 01:50:16;;;;;;;2.00;1.60;;;14.40;85.20;;;;;;10521553;28;20489;-58
2022/06/02 01:55:31;;;;;;;1.58;1.45;;;14.30;85.10;;;;;;10539339;28;20043;-62
2022/06/02 02:00:34;;;;;;;1.70;1.50;;;14.30;85.10;;;;;;10538962;28;20105;-61
2022/06/02 02:05:49;;;;;;;1.85;1.60;;;14.30;85.10;;;;;;10538558;28;20036;-61
2022/06/02 02:11:27;;;;;;;2.55;1.67;;;14.30;85.10;;;;;;10538900;28;20085;-62
2022/06/02 02:16:30;;;;;;;1.70;1.50;;;14.30;84.90;;;;;;10538383;28;20477;-58
2022/06/02 02:22:00;;;;;;;1.80;1.38;;;14.20;85.00;;;;;;10538067;28;20055;-59
2022/06/02 02:27:04;;;;;;;1.45;1.33;;;14.20;84.90;;;;;;10529058;28;20055;-59
2022/06/02 02:32:31;;;;;;;1.70;1.38;;;14.20;85.40;;;;;;10537643;28;20032;-61
2022/06/02 02:37:48;;;;;;;2.40;1.38;;;14.20;84.60;;;;;;10537643;28;20024;-62
2022/06/02 02:42:56;;;;;;;1.20;1.10;;;14.20;84.70;;;;;;10537209;28;20060;-61
2022/06/02 02:48:17;;;;;;;1.52;1.20;;;14.10;84.70;;;;;;10537192;28;20039;-58
2022/06/02 02:53:31;;;;;;;1.27;1.17;;;14.10;84.50;;;;;;10532888;28;20159;-61
2022/06/02 02:58:40;;;;;;;1.75;1.25;;;14.10;84.60;;;;;;10537058;28;20065;-57
2022/06/02 03:03:53;;;;;;;2.47;1.00;;;14.10;84.50;;;;;;10537014;28;20032;-58
2022/06/02 03:09:06;;;;;;;1.98;1.40;;;14.00;84.40;;;;;;10536753;28;20072;-59
2022/06/02 03:14:28;;;;;;;1.42;1.17;;;14.00;84.30;;;;;;10536530;28;20036;-59
2022/06/02 03:20:00;;;;;;;1.25;1.00;;;14.00;84.30;;;;;;10536240;28;20181;-59
2022/06/02 03:25:04;;;;;;;1.45;1.30;;;14.00;84.20;;;;;;10536143;28;20432;-59
2022/06/02 03:30:19;;;;;;;2.33;1.50;;;13.90;84.20;;;;;;10536155;28;20035;-61
2022/06/02 03:35:22;;;;;;;2.60;1.42;;;13.90;84.20;;;;;;10536098;28;20511;-61
2022/06/02 03:40:31;;;;;;;1.77;1.15;;;13.90;84.10;;;;;;10540393;28;20044;-59
2022/06/02 03:45:56;;;;;;;1.40;1.30;;;13.90;84.00;;;;;;10544378;28;20040;-62
2022/06/02 03:50:59;;;;;;;1.08;0.98;;;13.80;84.00;;;;;;10544179;28;20028;-58
2022/06/02 03:56:06;;;;;;;1.60;1.27;;;13.80;84.00;;;;;;10544011;28;20039;-60
2022/06/02 04:01:11;;;;;;;1.20;1.10;;;13.80;83.90;;;;;;10543790;28;20040;-57
2022/06/02 04:06:23;;;;;;;2.05;1.40;;;13.80;83.80;;;;;;10543352;28;20051;-58
2022/06/02 04:13:37;;;;;;;1.45;1.35;;;13.80;83.70;;;;;;10543721;28;20051;-62
2022/06/02 04:16:54;;;;;;;1.40;1.10;;;13.70;83.60;;;;;;10543754;28;20036;-60
2022/06/02 04:22:09;;;;;;;1.40;1.30;;;13.70;83.70;;;;;;10543000;28;20032;-61
2022/06/02 04:27:34;;;;;;;1.60;1.38;;;13.70;83.60;;;;;;10542889;28;20066;-61
2022/06/02 04:32:55;;;;;;;2.67;1.50;;;13.70;83.60;;;;;;10542453;28;20052;-61
2022/06/02 04:38:06;;;;;;;1.95;1.52;;;13.70;83.50;;;;;;10542529;28;20496;-59
2022/06/02 04:43:43;;;;;;;1.73;1.50;;;13.70;83.50;;;;;;10542084;28;20048;-58
2022/06/02 04:49:02;;;;;;;2.33;1.70;;;13.70;83.40;;;;;;10541775;28;20063;-57
2022/06/02 04:54:26;;;;;;;2.30;1.55;;;13.70;83.40;;;;;;10540637;28;20044;-59
2022/06/02 05:00:09;;;;;;;2.25;1.55;;;13.70;83.50;;;;;;10530218;28;20036;-59
2022/06/02 05:05:12;;;;;;;2.67;1.58;;;13.70;83.40;;;;;;10540975;28;20051;-61
2022/06/02 05:10:16;;;;;;;2.30;1.77;;;13.70;83.40;;;;;;10541070;28;20021;-61
2022/06/02 05:15:42;;;;;;;2.53;1.98;;;13.80;83.50;;;;;;10540997;28;20032;-58
2022/06/02 05:21:04;;;;;;;2.47;1.80;;;13.70;83.40;;;;;;10540675;28;20480;-60
2022/06/02 05:26:32;;;;;;;3.60;2.20;;;13.80;83.50;;;;;;10540436;28;20493;-60
2022/06/02 05:32:14;;;;;;;3.20;2.17;;;13.80;83.60;;;;;;10540154;28;20040;-58
2022/06/02 05:37:17;;;;;;;2.40;2.00;;;13.80;83.60;;;;;;10527392;28;20044;-61
2022/06/02 05:42:24;;;;;;;3.13;2.20;;;13.80;83.70;;;;;;10537476;28;20086;-58
2022/06/02 05:47:47;;;;;;;3.60;2.10;;;13.80;83.80;;;;;;10539262;28;20052;-60
2022/06/02 05:52:57;;;;;;;4.43;2.40;;;13.80;83.80;;;;;;10539379;28;20559;-61
2022/06/02 05:58:14;;;;;;;3.92;2.20;;;13.80;83.90;;;;;;10539188;28;20032;-58
2022/06/02 06:03:52;;;;;;;2.90;2.10;;;13.80;84.00;;;;;;10538430;28;20047;-60
2022/06/02 06:09:16;;;;;;;2.53;1.95;;;13.90;84.10;;;;;;10538163;28;20381;-58
2022/06/02 06:14:36;;;;;;;2.72;1.90;;;13.90;84.10;;;;;;10538245;28;20043;-59
2022/06/02 06:19:45;;;;;;;3.55;1.85;;;13.90;84.20;;;;;;10538277;28;20044;-57
2022/06/02 06:25:04;;;;;;;4.45;1.80;;;13.90;84.10;;;;;;10537931;28;20040;-61
2022/06/02 06:30:10;;;;;;;;;;;13.90;84.20;;;;;;10538166;28;20038;-62
2022/06/02 06:35:31;;;;;;;3.35;1.70;;;13.90;84.40;;;;;;10537205;28;20018;-58
2022/06/02 06:40:38;;;;;;;1.75;1.58;;;14.00;84.10;;;;;;10537289;28;20047;-60
2022/06/02 06:45:48;;;;;;;1.92;1.50;;;14.00;84.00;;;;;;10537514;28;20051;-58
2022/06/02 06:50:52;;;;;;;1.73;1.33;;;14.00;84.00;;;;;;10537188;28;20507;-59
2022/06/02 06:56:18;;;;;;;1.67;1.40;;;14.00;83.90;;;;;;10536949;28;20082;-62
2022/06/02 07:01:25;;;;;;;1.33;1.10;;;14.10;84.10;;;;;;10536655;28;20028;-65
2022/06/02 07:06:31;;;;;;;2.63;1.42;;;14.10;83.90;;;;;;10536241;28;20515;-58
2022/06/02 07:17:52;;;;;;;2.15;1.20;;;14.20;83.90;;;;;;10535758;28;20487;-58
2022/06/02 07:23:05;;;;;;;1.50;1.13;;;14.20;83.80;;;;;;10489401;28;20045;-58
2022/06/02 07:28:09;;;;;;;1.85;1.00;;;14.30;83.50;;;;;;10527562;28;20417;-58
2022/06/02 07:33:42;;;;;;;1.48;1.10;;;14.30;83.40;;;;;;10535963;28;20036;-59
2022/06/02 07:39:05;;;;;;;1.58;1.08;;;14.40;83.70;;;;;;10535696;28;20086;-57
2022/06/02 07:44:24;;;;;;;2.00;1.00;;;14.40;83.80;;;;;;10535715;28;20048;-60
2022/06/02 07:49:35;;;;;;;1.60;1.05;;;14.50;83.70;;;;;;10535729;28;20067;-59
2022/06/02 07:55:03;;;;;;;1.40;1.02;;;14.50;83.60;;;;;;10535598;28;20036;-60
2022/06/02 08:00:13;;;;;;;1.23;1.00;;;14.60;83.60;;;;;;10535664;28;20039;-58
2022/06/02 08:05:27;;;;;;;4.63;1.10;;;14.60;83.60;;;;;;10535528;28;20048;-61
2022/06/02 08:10:58;;;;;;;1.65;1.10;;;14.70;83.80;;;;;;10535300;28;20063;-66
2022/06/02 08:16:11;;;;;;;3.45;1.63;;;14.70;84.10;;;;;;10534876;28;20036;-63
2022/06/02 08:21:45;;;;;;;1.90;1.40;;;14.70;84.00;;;;;;10534910;28;20097;-67
2022/06/02 08:27:20;;;;;;;4.07;1.60;;;14.70;84.00;;;;;;10527837;28;20095;-59
2022/06/02 08:32:34;;;;;;;3.85;1.38;;;14.90;83.80;;;;;;10542556;28;20094;-62
2022/06/02 08:37:54;;;;;;;2.63;1.60;;;15.00;83.40;;;;;;10542246;28;20510;-58
2022/06/02 08:43:31;;;;;;;1.95;1.70;;;14.80;83.50;;;;;;10541849;28;20044;-75
2022/06/02 08:48:55;;;;;;;2.37;1.93;;;14.50;83.20;;;;;;10541934;28;20067;-65
2022/06/02 08:54:21;;;;;;;3.42;1.80;;;14.40;82.90;;;;;;10541484;28;20032;-63
2022/06/02 08:59:46;;;;;;;2.38;1.60;;;14.50;83.40;;;;;;10541335;28;20044;-63
2022/06/02 09:05:18;;;;;;;3.45;2.10;;;14.70;83.60;;;;;;10522959;28;20097;-64
2022/06/02 09:10:34;;;;;;;2.55;1.88;;;14.70;83.50;;;;;;10540812;28;20074;-65
2022/06/02 09:15:46;;;;;;;3.35;1.80;;;14.80;83.40;;;;;;10540678;28;20085;-64
2022/06/02 09:21:12;;;;;;;3.33;2.05;;;15.10;83.70;;;;;;10540479;28;20032;-61
2022/06/02 09:26:16;;;;;;;7.30;2.70;;;15.20;82.80;;;;;;10540312;28;20036;-67
2022/06/02 09:31:40;;;;;;;3.70;2.00;;;15.20;83.00;;;;;;10539890;28;20028;-59
2022/06/02 09:36:58;;;;;;;3.63;1.90;;;15.20;83.10;;;;;;10539109;28;20048;-58
2022/06/02 09:42:39;;;;;;;5.00;2.05;;;15.20;82.50;;;;;;10538943;28;20048;-64
2022/06/02 09:47:58;;;;;;;3.58;2.10;;;15.50;81.70;;;;;;10539368;28;20412;-58
2022/06/02 09:53:05;;;;;;;4.63;2.20;;;15.70;81.50;;;;;;10539252;28;20020;-66
2022/06/02 09:58:48;;;;;;;4.63;2.50;;;15.90;81.50;;;;;;10538682;28;20054;-64
2022/06/02 10:04:08;;;;;;;1.85;1.50;;;15.90;81.30;;;;;;10537379;28;20046;-66
2022/06/02 10:09:18;;;;;;;5.28;1.83;;;16.00;80.40;;;;;;10544540;28;20055;-58
2022/06/02 10:14:19;;;;;;;2.20;1.80;;;16.30;79.20;;;;;;10538616;28;20062;-58
2022/06/02 10:19:46;;;;;;;2.15;1.42;;;16.40;79.60;;;;;;10538255;28;20101;-67
2022/06/02 10:25:08;;;;;;;2.67;1.83;;;16.30;79.40;;;;;;10538040;28;20024;-58
2022/06/02 10:30:27;;;;;;;3.05;1.50;;;16.10;79.90;;;;;;10538152;28;20427;-65
2022/06/02 10:35:59;;;;;;;1.50;1.40;;;16.20;79.90;;;;;;10537495;28;20043;-65
2022/06/02 10:41:12;;;;;;;3.78;1.73;;;16.20;78.40;;;;;;10536745;28;20546;-68
2022/06/02 10:46:54;;;;;;;2.80;1.70;;;16.20;79.20;;;;;;10536552;28;20040;-66
2022/06/02 10:51:55;;;;;;;7.57;1.85;;;16.20;78.80;;;;;;10518132;28;20471;-64
2022/06/02 10:57:27;;;;;;;3.30;1.38;;;16.20;80.00;;;;;;10536853;28;20119;-61
2022/06/02 11:02:51;;;;;;;3.33;1.70;;;16.30;80.10;;;;;;10536373;28;20469;-64
2022/06/02 11:08:29;;;;;;;3.03;1.60;;;16.30;80.60;;;;;;10536194;28;20048;-65
2022/06/02 11:14:07;;;;;;;3.33;1.70;;;16.40;79.50;;;;;;10536002;28;20054;-60
2022/06/02 11:19:27;;;;;;;;;;;16.40;79.60;;;;;;10536357;28;20040;-58
2022/06/02 11:25:01;;;;;;;1.23;1.10;;;16.50;79.90;;;;;;10535978;28;19911;-62
2022/06/02 11:30:25;;;;;;;2.25;1.27;;;16.60;79.90;;;;;;10535923;28;20127;-60
2022/06/02 11:36:01;;;;;;;2.85;1.48;;;16.60;80.00;;;;;;10535963;28;20484;-61
2022/06/02 11:41:24;;;;;;;1.90;1.40;;;16.60;79.90;;;;;;10530722;28;20048;-58
2022/06/02 11:46:59;;;;;;;2.30;1.20;;;16.70;79.90;;;;;;10535706;28;20083;-63
2022/06/02 11:52:14;;;;;;;2.22;1.40;;;16.70;79.90;;;;;;10535649;28;20036;-61
2022/06/02 11:57:39;;;;;;;1.40;1.10;;;16.70;80.00;;;;;;10535540;28;20039;-57
2022/06/02 12:03:17;;;;;;;1.50;1.00;;;16.80;79.90;;;;;;10542099;28;20131;-64
2022/06/02 12:08:39;;;;;;;1.30;1.20;;;16.80;79.80;;;;;;10543647;28;20036;-63
2022/06/02 12:13:55;;;;;;;1.10;1.00;;;16.80;80.00;;;;;;10543169;28;20035;-62
2022/06/02 12:19:17;;;;;;;1.10;1.00;;;16.80;80.30;;;;;;10543403;28;20052;-59
2022/06/02 12:24:51;;;;;;;4.90;1.20;;;16.80;80.40;;;;;;10531358;28;20185;-60
2022/06/02 12:30:07;;;;;;;1.40;1.30;;;16.80;80.30;;;;;;10542556;28;20059;-61
2022/06/02 12:35:38;;;;;;;3.08;1.10;;;16.80;80.30;;;;;;10542407;28;20032;-59
2022/06/02 12:40:54;;;;;;;1.83;1.08;;;17.00;80.00;;;;;;10542111;28;20496;-57
2022/06/02 12:46:19;;;;;;;1.67;1.10;;;17.20;79.70;;;;;;10541951;28;20059;-61
2022/06/02 12:51:33;;;;;;;1.70;1.00;;;17.20;79.70;;;;;;10541974;28;20028;-64
2022/06/02 12:56:36;;;;;;;2.88;1.05;;;17.20;79.70;;;;;;10541614;28;20404;-63
2022/06/02 13:01:55;;;;;;;0.93;0.93;;;17.30;79.70;;;;;;10541656;28;20070;-62
2022/06/02 13:07:33;;;;;;;2.33;1.17;;;17.30;79.70;;;;;;10541610;28;20079;-64
2022/06/02 13:13:09;;;;;;;1.88;1.17;;;17.30;79.90;;;;;;10540794;28;20108;-64
2022/06/02 13:18:31;;;;;;;2.05;1.10;;;17.20;80.10;;;;;;10535649;28;20056;-64
2022/06/02 13:23:51;;;;;;;0.80;0.80;;;17.30;80.10;;;;;;10540823;28;20039;-68
2022/06/02 13:29:14;;;;;;;1.15;0.98;;;17.30;80.10;;;;;;10536171;28;20067;-57
2022/06/02 13:34:32;;;;;;;1.25;1.10;;;17.20;80.30;;;;;;10539981;28;20034;-58
2022/06/02 13:40:02;;;;;;;1.48;1.02;;;17.40;80.40;;;;;;10539555;28;20443;-64
2022/06/02 13:45:30;;;;;;;1.38;0.90;;;17.40;80.20;;;;;;10521411;28;20523;-59
2022/06/02 13:50:49;;;;;;;1.20;1.10;;;17.50;80.30;;;;;;10538808;28;20417;-59
2022/06/02 14:02:29;;;;;;;1.95;1.00;;;17.40;80.50;;;;;;10537544;28;20036;-66
2022/06/02 14:07:42;;;;;;;1.35;1.10;;;17.30;80.60;;;;;;10536910;28;20040;-61
2022/06/02 14:13:04;;;;;;;1.25;1.10;;;17.30;80.70;;;;;;10536962;28;20485;-63
2022/06/02 14:18:16;;;;;;;1.02;0.93;;;17.30;81.00;;;;;;10536597;28;20562;-62
2022/06/02 14:23:44;;;;;;;2.53;1.10;;;17.30;81.10;;;;;;10536252;28;20032;-64
2022/06/02 14:28:48;;;;;;;1.10;0.90;;;17.30;81.20;;;;;;10535946;28;20039;-58
2022/06/02 14:34:16;;;;;;;1.40;1.20;;;17.50;80.90;;;;;;10535900;28;20043;-59
2022/06/02 14:39:17;;;;;;;1.83;1.00;;;17.80;80.40;;;;;;10535546;28;20122;-77
2022/06/02 14:44:36;;;;;;;1.98;1.30;;;18.40;78.70;;;;;;10536117;28;20397;-65
2022/06/02 14:50:09;;;;;;;1.65;1.00;;;18.90;77.20;;;;;;10535281;28;20097;-70
2022/06/02 14:55:16;;;;;;;1.10;1.00;;;19.10;76.80;;;;;;10535694;28;20029;-59
2022/06/02 15:00:20;;;;;;;3.45;1.30;;;19.30;76.40;;;;;;10536276;28;20503;-63
2022/06/02 15:05:23;;;;;;;2.10;1.02;;;19.50;76.00;;;;;;10536378;28;20530;-61
2022/06/02 15:10:43;;;;;;;1.48;1.00;;;20.00;74.90;;;;;;10537718;28;20032;-61
2022/06/02 15:15:49;;;;;;;3.50;1.25;;;20.30;73.70;;;;;;10538306;28;20093;-64
2022/06/02 15:21:03;;;;;;;1.83;1.05;;;20.30;73.60;;;;;;10535939;28;20036;-77
2022/06/02 15:26:21;;;;;;;1.73;1.10;;;20.40;73.20;;;;;;10535805;28;20036;-75
2022/06/02 15:31:52;;;;;;;1.15;1.05;;;20.20;73.60;;;;;;10535657;28;20054;-75
2022/06/02 15:37:17;;;;;;;1.63;1.30;;;19.80;73.40;;;;;;10523520;28;20035;-67
2022/06/02 15:42:37;;;;;;;2.90;1.30;;;19.30;74.40;;;;;;10549353;28;20552;-72
2022/06/02 15:48:03;;;;;;;1.55;1.23;;;18.90;75.30;;;;;;10549374;28;20051;-74
2022/06/02 15:53:25;;;;;;;1.35;1.25;;;18.60;76.50;;;;;;10549387;28;20498;-58
2022/06/02 15:58:44;;;;;;;1.67;1.13;;;18.30;76.40;;;;;;10549419;28;20088;-60
2022/06/02 16:04:22;;;;;;;1.40;0.90;;;18.10;75.30;;;;;;10549041;28;20050;-65
2022/06/02 16:15:41;;;;;;;1.88;1.13;;;17.80;75.90;;;;;;10548545;28;20404;-70
2022/06/02 16:20:59;;;;;;;2.63;1.23;;;17.80;76.10;;;;;;10548637;28;20440;-71
2022/06/02 16:26:06;;;;;;;1.67;1.02;;;17.80;75.80;;;;;;10548653;28;20040;-67
2022/06/02 16:31:11;;;;;;;1.50;1.00;;;17.90;75.80;;;;;;10548472;28;20483;-62
2022/06/02 16:36:30;;;;;;;2.58;1.27;;;17.80;75.60;;;;;;10548447;28;20059;-62
2022/06/02 16:41:57;;;;;;;3.22;1.02;;;17.80;73.90;;;;;;10548219;28;20515;-69
2022/06/02 16:47:31;;;;;;;1.93;1.13;;;17.80;74.30;;;;;;10545058;28;20048;-67
2022/06/02 16:52:46;;;;;;;1.88;1.20;;;17.90;74.00;;;;;;10541458;28;20286;-64
2022/06/02 16:58:12;;;;;;;1.63;1.23;;;17.90;74.90;;;;;;10541262;28;20032;-61
2022/06/02 17:03:48;;;;;;;6.30;1.38;;;17.90;75.40;;;;;;10541032;28;20036;-59
2022/06/02 17:09:07;;;;;;;2.67;1.20;;;18.00;75.80;;;;;;10531766;28;20044;-63
2022/06/02 17:14:22;;;;;;;3.20;1.48;;;18.10;76.00;;;;;;10540948;28;20052;-63
2022/06/02 17:19:37;;;;;;;2.13;1.35;;;18.20;76.10;;;;;;10540363;28;20492;-62
2022/06/02 17:25:20;;;;;;;3.33;1.20;;;18.20;76.30;;;;;;10540332;28;20170;-61
2022/06/02 17:30:43;;;;;;;2.05;1.00;;;18.20;76.40;;;;;;10540316;28;20052;-63
2022/06/02 17:35:58;;;;;;;2.50;1.10;;;18.20;76.70;;;;;;10539110;28;20097;-62
2022/06/02 17:41:04;;;;;;;1.85;1.27;;;18.20;76.90;;;;;;10539653;28;20222;-60
2022/06/02 17:46:25;;;;;;;1.27;1.10;;;18.20;77.10;;;;;;10539420;28;20047;-63
2022/06/02 17:51:58;;;;;;;3.78;1.35;;;18.20;77.20;;;;;;10528296;28;20119;-59
2022/06/02 17:57:35;;;;;;;1.15;1.05;;;18.20;77.50;;;;;;10538560;28;20043;-62
2022/06/02 18:03:01;;;;;;;1.15;1.05;;;18.20;77.60;;;;;;10538982;28;20039;-63
2022/06/02 18:08:23;;;;;;;1.67;1.08;;;18.10;77.80;;;;;;10538667;28;20105;-59
2022/06/02 18:13:54;;;;;;;1.30;1.00;;;18.10;78.00;;;;;;10538446;28;20040;-60
2022/06/02 18:19:23;;;;;;;1.60;1.05;;;18.10;78.00;;;;;;10538088;28;20028;-60
2022/06/02 18:24:38;;;;;;;0.90;0.90;;;18.10;78.20;;;;;;10537388;28;20040;-61
2022/06/02 18:30:04;;;;;;;1.10;1.00;;;18.00;78.40;;;;;;10537555;28;20056;-61
2022/06/02 18:35:31;;;;;;;2.42;1.05;;;18.00;78.50;;;;;;10537311;28;20029;-60
2022/06/02 18:41:08;;;;;;;1.30;1.20;;;18.00;78.70;;;;;;10525941;28;20044;-60
2022/06/02 18:46:52;;;;;;;1.63;1.10;;;18.00;78.90;;;;;;10537093;28;20052;-60
2022/06/02 18:52:08;;;;;;;1.13;1.00;;;18.00;78.90;;;;;;10536803;28;20473;-59
2022/06/02 18:57:38;;;;;;;1.65;1.20;;;18.00;79.00;;;;;;10536191;28;20457;-58
2022/06/02 19:02:46;;;;;;;1.77;1.13;;;18.00;79.10;;;;;;10533772;28;20544;-59
2022/06/02 19:14:04;;;;;;;1.50;1.15;;;17.90;79.30;;;;;;10535898;28;20028;-60
2022/06/02 19:19:27;;;;;;;1.10;1.00;;;17.90;80.40;;;;;;10536158;28;20115;-64
2022/06/02 19:25:06;;;;;;;1.08;0.98;;;17.80;79.80;;;;;;10535512;28;20067;-63
2022/06/02 19:30:06;;;;;;;;;;;17.80;79.90;;;;;;10536377;28;20439;-59
2022/06/02 19:35:16;;;;;;;1.17;1.08;;;17.80;80.00;;;;;;10535562;28;19904;-65
2022/06/02 19:40:20;;;;;;;1.33;1.10;;;17.70;80.00;;;;;;10532266;28;20458;-67
2022/06/02 19:45:44;;;;;;;1.52;1.42;;;17.70;80.10;;;;;;10535142;28;20052;-60
2022/06/02 19:50:50;;;;;;;1.42;1.30;;;17.70;80.20;;;;;;10523834;28;20029;-64
2022/06/02 19:56:18;;;;;;;1.60;1.27;;;17.60;80.30;;;;;;10535118;28;20071;-61
2022/06/02 20:01:34;;;;;;;;;;;17.60;80.90;;;;;;10535505;28;20054;-59
2022/06/02 20:06:35;;;;;;;2.17;1.58;;;17.60;80.80;;;;;;10516942;28;19958;-59
2022/06/02 20:11:40;;;;;;;1.73;1.45;;;17.50;80.60;;;;;;10535257;28;20093;-60
2022/06/02 20:16:41;;;;;;;1.92;1.50;;;17.50;80.70;;;;;;10534766;28;20064;-59
2022/06/02 20:21:52;;;;;;;2.40;1.40;;;17.50;80.80;;;;;;10537871;28;20522;-60
2022/06/02 20:26:53;;;;;;;2.05;1.50;;;17.40;80.80;;;;;;10542577;28;20560;-58
2022/06/02 20:31:58;;;;;;;1.20;1.10;;;17.40;80.90;;;;;;10542413;28;20111;-58
2022/06/02 20:37:26;;;;;;;1.70;1.30;;;17.40;81.00;;;;;;10542145;28;20032;-63
2022/06/02 20:42:37;;;;;;;2.78;2.38;;;17.40;81.10;;;;;;10539568;28;20500;-58
2022/06/02 20:48:00;;;;;;;1.10;1.00;;;17.30;81.00;;;;;;10541623;28;20047;-64
2022/06/02 20:53:09;;;;;;;1.83;1.40;;;17.30;81.10;;;;;;10541738;28;20114;-64
2022/06/02 20:58:15;;;;;;;1.55;1.30;;;17.30;81.00;;;;;;10540135;28;20088;-62
2022/06/02 21:03:34;;;;;;;1.63;1.27;;;17.30;81.00;;;;;;10541258;28;20039;-61
2022/06/02 21:08:39;;;;;;;1.40;1.23;;;17.20;80.90;;;;;;10540718;28;20036;-63
2022/06/02 21:13:47;;;;;;;1.85;1.15;;;17.20;81.00;;;;;;10540834;28;20686;-65
2022/06/02 21:19:17;;;;;;;1.98;1.38;;;17.10;81.00;;;;;;10540098;28;20040;-59
2022/06/02 21:24:21;;;;;;;1.15;1.05;;;17.10;81.10;;;;;;10540156;28;20032;-64
2022/06/02 21:29:26;;;;;;;1.77;1.48;;;17.10;81.10;;;;;;10540235;28;20028;-61
2022/06/02 21:34:30;;;;;;;2.25;1.30;;;17.10;81.10;;;;;;10539611;28;20035;-58
2022/06/02 21:39:35;;;;;;;1.80;1.30;;;17.00;81.10;;;;;;10539478;28;20043;-61
2022/06/02 21:45:01;;;;;;;1.40;1.30;;;17.00;81.10;;;;;;10537422;28;20043;-59
2022/06/02 21:50:20;;;;;;;1.42;1.10;;;16.90;81.10;;;;;;10537798;28;20587;-59
2022/06/02 21:55:48;;;;;;;1.52;1.15;;;16.90;81.10;;;;;;10537338;28;20039;-59
2022/06/02 22:01:03;;;;;;;2.00;1.23;;;16.90;81.20;;;;;;10537038;28;20475;-65
2022/06/02 22:06:26;;;;;;;3.65;1.30;;;16.80;81.20;;;;;;10520060;28;20055;-59
2022/06/02 22:11:48;;;;;;;1.95;1.10;;;16.80;81.20;;;;;;10538812;28;20039;-64
2022/06/02 22:17:08;;;;;;;2.25;1.05;;;16.70;81.20;;;;;;10538432;28;20368;-64
2022/06/02 22:22:28;;;;;;;1.55;1.10;;;16.70;81.30;;;;;;10520274;28;20052;-58
2022/06/02 22:27:31;;;;;;;2.03;1.10;;;16.70;81.40;;;;;;10520034;28;20068;-59
2022/06/02 22:32:59;;;;;;;1.52;1.00;;;16.60;81.40;;;;;;10537807;28;20495;-63
2022/06/02 22:38:14;;;;;;;1.65;1.10;;;16.60;81.40;;;;;;10537717;28;20043;-63
2022/06/02 22:43:49;;;;;;;1.83;1.20;;;16.60;81.50;;;;;;10537149;28;20048;-60
2022/06/02 22:49:14;;;;;;;2.63;1.50;;;16.60;81.50;;;;;;10537343;28;20048;-62
2022/06/02 22:54:44;;;;;;;3.53;1.17;;;16.50;81.40;;;;;;10537225;28;20043;-60
2022/06/02 23:00:01;;;;;;;1.95;1.13;;;16.50;81.40;;;;;;10536843;28;20486;-63
2022/06/02 23:05:01;;;;;;;2.63;1.20;;;16.50;81.40;;;;;;10536924;28;20040;-63
2022/06/02 23:10:24;;;;;;;2.90;1.15;;;16.50;81.40;;;;;;10536781;28;20044;-65
2022/06/02 23:15:55;;;;;;;1.48;1.20;;;16.50;81.40;;;;;;10536565;28;20120;-65
2022/06/02 23:21:25;;;;;;;1.80;1.50;;;16.40;81.50;;;;;;10536247;28;20039;-57
2022/06/02 23:26:43;;;;;;;1.33;1.20;;;16.40;81.50;;;;;;10536006;28;20066;-61
2022/06/02 23:31:59;;;;;;;1.95;1.25;;;16.40;81.50;;;;;;10536136;28;20044;-61
2022/06/02 23:37:19;;;;;;;1.63;1.35;;;16.30;81.50;;;;;;10535754;28;20043;-60
2022/06/02 23:48:32;;;;;;;1.38;1.25;;;16.20;81.60;;;;;;10501275;28;20485;-64
2022/06/02 23:53:54;;;;;;;1.63;1.25;;;16.20;81.70;;;;;;10535409;28;20381;-59
2022/06/02 23:59:23;;;;;;;1.25;1.10;;;16.20;81.70;;;;;;10542516;28;20040;-60
